Data for 08/17/2009

Time Sea-Level Adjusted Pressure Absolute Pressure Temperature Relative Humidity Dew Point   
(mb) (inHg) (mb) (inHg) (C) (F) (%) (C) (F)
00:05 1024 30.24 853 25.19 7.1 44.9 83 4.4 39.9
00:10 1024 30.24 853 25.19 7.2 45 82 4.3 39.7
00:15 1024 30.24 853 25.19 7.1 44.8 83 4.3 39.8
00:20 1024 30.24 853 25.19 6.9 44.4 84 4.4 39.9
00:25 1024 30.24 853 25.19 6.7 44 85 4.4 39.9
00:30 1024 30.24 853 25.19 6.6 43.8 85 4.2 39.6
00:35 1024 30.24 853 25.19 6.4 43.5 88 4.5 40.1
00:40 1024 30.24 853 25.19 5.8 42.5 89 4.1 39.4
00:45 1024 30.24 853 25.19 5.8 42.5 88 3.9 39.1
00:50 1024 30.24 853 25.19 6 42.8 86 3.9 39
00:55 1024 30.24 853 25.19 5.9 42.6 87 3.9 39
01:00 1024 30.24 853 25.19 5.8 42.4 88 4 39.1
01:05 1024 30.24 853 25.19 5.8 42.4 88 4 39.2
01:10 1024 30.24 853 25.19 5.8 42.4 88 4 39.1
01:15 1024 30.24 853 25.19 5.9 42.6 87 3.8 38.9
01:20 1024 30.24 853 25.19 6 42.8 85 3.7 38.6
01:25 1024 30.24 853 25.19 6 42.9 84 3.6 38.5
01:30 1024 30.24 853 25.19 6.1 43.1 84 3.6 38.5
01:35 1024 30.24 853 25.19 6.1 43 85 3.7 38.7
01:40 1024 30.24 853 25.19 5.8 42.5 87 3.8 38.8
01:45 1024 30.24 853 25.19 5.6 42.2 88 3.8 38.9
01:50 1024 30.24 853 25.19 5.5 41.8 89 3.8 38.9
01:55 1024 30.24 853 25.19 5.4 41.8 88 3.6 38.5
02:00 1024 30.24 853 25.19 6 42.7 86 3.8 38.8
02:05 1024 30.24 853 25.19 6 42.8 87 4 39.1
02:10 1024 30.24 853 25.19 5.6 42.1 87 3.6 38.4
02:15 1024 30.24 853 25.19 5.5 41.8 86 3.4 38.1
02:20 1024 30.24 853 25.19 5.4 41.7 87 3.4 38.1
02:25 1024 30.24 853 25.19 5.3 41.5 87 3.3 38
02:30 1024 30.24 853 25.19 5.2 41.4 88 3.3 38
02:35 1024 30.24 853 25.19 5 41.1 89 3.3 37.9
02:40 1024 30.24 853 25.19 5 41 89 3.3 38
02:45 1024 30.24 853 25.19 5 41 89 3.3 38
02:50 1024 30.24 853 25.19 5.1 41.3 88 3.3 38
02:55 1024 30.24 853 25.19 5.2 41.4 87 3.2 37.8
03:00 1024 30.24 853 25.19 5.2 41.3 87 3.2 37.8
03:05 1024 30.24 853 25.19 5.2 41.4 87 3.2 37.7
03:10 1024 30.24 853 25.19 5.3 41.6 87 3.3 37.9
03:15 1024 30.24 853 25.19 5.3 41.5 87 3.3 37.9
03:20 1024 30.24 853 25.19 5 41.1 88 3.2 37.7
03:25 1024 30.24 853 25.19 5.1 41.2 86 3 37.4
03:30 1024 30.24 853 25.19 5.3 41.5 86 3.2 37.7
03:35 1024 30.24 853 25.19 5.3 41.6 85 3.1 37.5
03:40 1024 30.24 853 25.19 5.4 41.8 85 3.2 37.7
03:45 1024 30.24 853 25.19 5.5 41.9 84 3.1 37.6
03:50 1024 30.24 853 25.19 5.6 42 85 3.2 37.8
03:55 1024 30.24 853 25.19 5.1 41.3 87 3.2 37.7
04:00 1024 30.24 853 25.19 4.9 40.7 88 3 37.5
04:05 1024 30.24 853 25.19 4.9 40.8 88 3 37.4
04:10 1024 30.24 853 25.19 4.8 40.7 88 3 37.5
04:15 1024 30.24 853 25.19 4.8 40.7 88 2.9 37.3
04:20 1024 30.24 853 25.19 4.9 40.8 87 3 37.4
04:25 1024 30.24 853 25.19 4.6 40.3 89 2.9 37.2
04:30 1024 30.24 853 25.19 4.5 40.1 89 2.8 37
04:35 1024 30.24 853 25.19 4.6 40.2 88 2.8 37.1
04:40 1024 30.24 853 25.19 4.8 40.7 87 2.9 37.1
04:45 1024 30.24 853 25.19 4.9 40.9 87 3 37.3
04:50 1024 30.24 853 25.19 4.7 40.5 88 2.9 37.1
04:55 1024 30.24 853 25.19 4.6 40.3 89 2.9 37.1
05:00 1024 30.24 853 25.19 4.5 40.1 89 2.9 37.2
05:05 1024 30.24 853 25.19 4.8 40.6 87 2.8 37.1
05:10 1024 30.24 853 25.19 5 41 86 2.9 37.2
05:15 1024 30.24 853 25.19 5 40.9 86 2.8 37.1
05:20 1024 30.24 853 25.19 4.9 40.8 87 2.9 37.2
05:25 1024 30.24 853 25.19 4.6 40.3 88 2.8 37.1
05:30 1024 30.24 853 25.19 4.3 39.8 90 2.8 37.1
05:35 1024 30.24 853 25.19 4.2 39.5 90 2.7 36.9
05:40 1024 30.24 854 25.22 4.3 39.8 88 2.6 36.7
05:45 1024 30.24 854 25.22 4.7 40.5 87 2.8 37
05:50 1024 30.24 854 25.22 4.6 40.3 88 2.8 37
05:55 1024 30.24 854 25.22 4.5 40.2 88 2.8 37
06:00 1024 30.24 854 25.22 4.5 40.2 87 2.6 36.7
06:05 1024 30.24 854 25.22 4.8 40.6 87 2.8 37
06:10 1024 30.24 854 25.22 4.6 40.4 88 2.8 37
06:15 1025 30.27 854 25.22 4.8 40.6 86 2.7 36.8
06:20 1025 30.27 854 25.22 4.9 40.8 86 2.8 37.1
06:25 1025 30.27 854 25.22 4.9 40.8 87 2.9 37.2
06:30 1025 30.27 854 25.22 4.9 40.8 86 2.8 37
06:35 1025 30.27 854 25.22 4.9 40.7 87 2.9 37.2
06:40 1025 30.27 854 25.22 4.9 40.9 86 2.7 36.9
06:45 1025 30.27 854 25.22 5 41.1 85 2.7 36.9
06:50 1025 30.27 854 25.22 5.2 41.3 85 2.8 37
06:55 1025 30.27 854 25.22 5.3 41.6 84 2.8 37
07:00 1025 30.27 854 25.22 5.3 41.6 84 2.8 37
07:05 1025 30.27 854 25.22 5.4 41.7 83 2.7 36.9
07:10 1025 30.27 854 25.22 5.6 42 83 2.9 37.2
07:15 1025 30.27 854 25.22 5.5 41.9 83 2.8 37.1
07:20 1025 30.27 854 25.22 5.6 42 82 2.8 37
07:25 1025 30.27 854 25.22 5.7 42.3 82 2.9 37.2
07:30 1025 30.27 854 25.22 5.8 42.5 81 2.9 37.2
07:35 1025 30.27 854 25.22 6 42.9 81 3 37.4
07:40 1025 30.27 854 25.22 6.3 43.3 80 3 37.5
07:45 1025 30.27 854 25.22 6.5 43.7 79 3.1 37.7
07:50 1025 30.27 854 25.22 6.9 44.4 78 3.2 37.8
07:55 1025 30.27 854 25.22 7.4 45.2 76 3.3 38
08:00 1025 30.27 854 25.22 7.6 45.7 75 3.6 38.4
08:05 1025 30.27 854 25.22 7.5 45.5 76 3.6 38.4
08:10 1025 30.27 855 25.25 8.2 46.8 74 3.8 38.8
08:15 1025 30.27 855 25.25 8.3 47 73 3.9 39
08:20 1025 30.27 855 25.25 7.9 46.3 75 3.8 38.8
08:25 1025 30.27 854 25.22 8.4 47 73 3.8 38.9
08:30 1025 30.27 854 25.22 8.7 47.7 73 4.1 39.4
08:35 1025 30.27 854 25.22 8.9 48 72 4.1 39.4
08:40 1025 30.27 854 25.22 8.9 48 72 4.2 39.6
08:45 1025 30.27 854 25.22 9.5 49.1 70 4.4 39.9
08:50 1025 30.27 854 25.22 10.1 50.1 68 4.4 39.9
08:55 1025 30.27 854 25.22 10.8 51.5 65 4.7 40.4
09:00 1025 30.27 854 25.22 11.2 52.2 65 5 40.9
09:05 1025 30.27 854 25.22 11.4 52.5 63 4.7 40.5
09:10 1025 30.27 854 25.22 11.5 52.6 63 4.6 40.3
09:15 1025 30.27 854 25.22 11.5 52.6 65 5.1 41.1
09:20 1025 30.27 854 25.22 11.1 51.9 65 4.7 40.4
09:25 1025 30.27 855 25.25 12 53.7 63 5.2 41.3
09:30 1025 30.27 855 25.25 12.5 54.5 62 5.4 41.7
09:35 1025 30.27 855 25.25 13.2 55.8 59 5.4 41.8
09:40 1025 30.27 855 25.25 13.4 56.1 57 5 41
09:45 1025 30.27 855 25.25 13.7 56.6 57 5.4 41.8
09:50 1025 30.27 855 25.25 13.4 56.2 59 5.6 42.1
09:55 1025 30.27 855 25.25 12.8 55 58 4.8 40.7
10:00 1025 30.27 855 25.25 13.1 55.5 57 4.8 40.6
10:05 1025 30.27 855 25.25 13.7 56.7 56 5.1 41.2
10:10 1025 30.27 855 25.25 14 57.2 54 4.8 40.6
10:15 1025 30.27 855 25.25 14.6 58.2 53 5.2 41.4
10:20 1025 30.27 855 25.25 14.7 58.5 51 4.8 40.6
10:25 1025 30.27 855 25.25 14.7 58.5 53 5.2 41.4
10:30 1025 30.27 855 25.25 14.7 58.5 54 5.5 42
10:35 1025 30.27 855 25.25 14 57.2 56 5.4 41.7
10:40 1025 30.27 855 25.25 13.9 57 57 5.5 41.8
10:45 1025 30.27 855 25.25 13.9 56.9 56 5.3 41.6
10:50 1025 30.27 855 25.25 14.2 57.6 54 5.1 41.1
10:55 1025 30.27 854 25.22 14.9 58.7 53 5.5 42
11:00 1025 30.27 854 25.22 14.3 57.8 53 5 41
11:05 1025 30.27 854 25.22 13.9 57 56 5.4 41.6
11:10 1025 30.27 854 25.22 14.7 58.5 54 5.7 42.2
11:15 1025 30.27 854 25.22 14.1 57.3 55 5.2 41.4
11:20 1025 30.27 854 25.22 14.3 57.7 53 5 40.9
11:25 1025 30.27 854 25.22 15.4 59.7 50 5.2 41.3
11:30 1025 30.27 854 25.22 14.6 58.3 53 5.2 41.4
11:35 1025 30.27 854 25.22 15.4 59.7 50 5.1 41.2
11:40 1025 30.27 854 25.22 16 60.7 47 4.9 40.8
11:45 1025 30.27 854 25.22 16.2 61.1 51 6 42.8
11:50 1025 30.27 854 25.22 16.4 61.5 44 4.4 39.9
11:55 1025 30.27 854 25.22 17.2 63 44 5 41
12:00 1025 30.27 854 25.22 17.1 62.7 46 5.5 41.9
12:05 1025 30.27 854 25.22 16.5 61.7 48 5.5 41.8
12:10 1025 30.27 854 25.22 16.6 61.9 48 5.5 41.9
12:15 1025 30.27 854 25.22 16.4 61.6 45 4.4 40
12:20 1025 30.27 854 25.22 16.9 62.4 48 5.9 42.7
12:25 1025 30.27 854 25.22 16.3 61.3 46 4.8 40.6
12:30 1025 30.27 854 25.22 16.8 62.2 43 4.1 39.4
12:35 1025 30.27 854 25.22 17 62.6 44 4.9 40.9
12:40 1025 30.27 854 25.22 16.3 61.4 47 5.1 41.1
12:45 1025 30.27 854 25.22 17.3 63.2 43 4.8 40.6
12:50 1025 30.27 854 25.22 15.9 60.7 47 4.6 40.4
12:55 1025 30.27 854 25.22 16.9 62.5 42 4.2 39.5
13:00 1025 30.27 854 25.22 17.8 64.1 42 4.8 40.7
13:05 1025 30.27 854 25.22 18.4 65.1 39 4.2 39.5
13:10 1025 30.27 854 25.22 18.5 65.3 35 3 37.3
13:15 1025 30.27 854 25.22 18.9 65.9 38 4.4 39.9
13:20 1025 30.27 854 25.22 18.4 65.1 39 4.2 39.5
13:25 1025 30.27 854 25.22 18.3 64.9 40 4.4 40
13:30 1025 30.27 854 25.22 17.7 63.9 41 4.3 39.7
13:35 1024 30.24 854 25.22 17.5 63.5 38 3.1 37.7
13:40 1024 30.24 854 25.22 17.5 63.4 38 3.3 37.9
13:45 1024 30.24 854 25.22 17.3 63.2 40 3.8 38.9
13:50 1024 30.24 854 25.22 17.4 63.4 39 3.3 37.9
13:55 1024 30.24 854 25.22 17.1 62.8 39 3.3 38
14:00 1024 30.24 853 25.19 17.6 63.6 36 2.6 36.6
14:05 1024 30.24 853 25.19 17.9 64.3 36 2.8 37
14:10 1024 30.24 853 25.19 18 64.5 38 3.7 38.7
14:15 1024 30.24 853 25.19 17.9 64.2 36 2.6 36.7
14:20 1024 30.24 853 25.19 19.1 66.4 32 2.1 35.9
14:25 1024 30.24 853 25.19 19.2 66.6 34 3 37.3
14:30 1024 30.24 853 25.19 18.2 64.7 34 2.1 35.8
14:35 1024 30.24 853 25.19 18.8 65.8 32 2 35.7
14:40 1024 30.24 853 25.19 19.5 67.1 32 2.7 36.9
14:45 1024 30.24 853 25.19 19.8 67.7 31 2.2 36
14:50 1024 30.24 853 25.19 20.1 68.2 32 3.3 37.9
14:55 1024 30.24 853 25.19 19.7 67.5 30 2 35.6
15:00 1024 30.24 853 25.19 20.3 68.5 29 1.9 35.4
15:05 1024 30.24 853 25.19 20 68.1 33 3.3 38
15:10 1023 30.21 853 25.19 18.8 65.9 32 2.1 35.8
15:15 1023 30.21 853 25.19 19.2 66.5 32 2.1 35.8
15:20 1023 30.21 852 25.16 19.5 67.1 33 3.2 37.7
15:25 1023 30.21 852 25.16 19.4 66.9 32 2.6 36.7
15:30 1023 30.21 852 25.16 19.4 67 33 2.7 36.8
15:35 1023 30.21 852 25.16 19.5 67 31 2.2 36
15:40 1023 30.21 852 25.16 20.5 68.9 31 2.8 37
15:45 1023 30.21 852 25.16 20.5 69 30 2.6 36.7
15:50 1023 30.21 852 25.16 19.7 67.5 31 2.3 36.2
15:55 1023 30.21 852 25.16 20.2 68.4 30 2.2 36
16:00 1023 30.21 852 25.16 20 68 30 2.1 35.8
16:05 1023 30.21 852 25.16 20 67.9 31 2.4 36.2
16:10 1023 30.21 852 25.16 19 66.1 33 2.4 36.3
16:15 1023 30.21 852 25.16 18.8 65.8 31 1.5 34.7
16:20 1023 30.21 852 25.16 19.5 67.1 31 2 35.6
16:25 1023 30.21 852 25.16 19.5 67.2 30 1.8 35.3
16:30 1023 30.21 852 25.16 19.8 67.6 31 2.1 35.8
16:35 1023 30.21 852 25.16 20.4 68.6 30 2.4 36.3
16:40 1023 30.21 852 25.16 19.6 67.3 31 2.3 36.1
16:45 1023 30.21 852 25.16 19.2 66.5 33 2.8 37.1
16:50 1023 30.21 852 25.16 19.5 67.1 31 1.9 35.3
16:55 1023 30.21 852 25.16 20.3 68.5 31 2.6 36.6
17:00 1023 30.21 852 25.16 19.3 66.8 32 2.5 36.5
17:05 1023 30.21 852 25.16 19.1 66.4 32 2.2 35.9
17:10 1023 30.21 852 25.16 19.3 66.8 30 1.7 35
17:15 1023 30.21 852 25.16 19.7 67.5 31 2.3 36.1
17:20 1023 30.21 852 25.16 19.8 67.6 32 2.9 37.3
17:25 1023 30.21 852 25.16 19.7 67.4 32 2.5 36.6
17:30 1023 30.21 852 25.16 20.1 68.2 30 2.1 35.8
17:35 1023 30.21 852 25.16 19.9 67.8 31 2.6 36.7
17:40 1022 30.18 852 25.16 20.3 68.5 32 3.3 37.9
17:45 1022 30.18 852 25.16 20.2 68.4 31 2.8 37
17:50 1022 30.18 852 25.16 20.2 68.4 30 2.4 36.4
17:55 1022 30.18 851 25.13 20.5 68.9 31 3.1 37.6
18:00 1022 30.18 851 25.13 20.2 68.3 32 2.9 37.3
18:05 1022 30.18 851 25.13 20.7 69.3 30 2.6 36.7
18:10 1022 30.18 851 25.13 20.3 68.5 32 3.3 37.9
18:15 1022 30.18 851 25.13 19.5 67 33 2.8 37
18:20 1022 30.18 851 25.13 19.8 67.6 32 2.5 36.6
18:25 1022 30.18 851 25.13 20.2 68.3 31 2.9 37.1
18:30 1022 30.18 851 25.13 20.1 68.2 32 3.2 37.8
18:35 1022 30.18 851 25.13 19.8 67.6 33 3 37.4
18:40 1022 30.18 851 25.13 20.3 68.6 33 3.5 38.3
18:45 1022 30.18 851 25.13 20.2 68.4 32 3.2 37.8
18:50 1022 30.18 851 25.13 19.8 67.7 33 3.2 37.8
18:55 1022 30.18 851 25.13 19.6 67.2 33 2.9 37.3
19:00 1022 30.18 851 25.13 19.3 66.7 35 3.4 38.1
19:05 1022 30.18 851 25.13 19.2 66.6 33 2.8 37.1
19:10 1022 30.18 851 25.13 19.2 66.6 32 2.4 36.4
19:15 1022 30.18 851 25.13 19.1 66.4 33 2.7 36.9
19:20 1022 30.18 851 25.13 19.1 66.4 34 3.1 37.6
19:25 1022 30.18 851 25.13 19.1 66.4 34 3.2 37.7
19:30 1022 30.18 851 25.13 18.6 65.4 35 3.1 37.5
19:35 1022 30.18 851 25.13 18.3 65 39 4.2 39.6
19:40 1022 30.18 851 25.13 18.2 64.7 40 4.3 39.7
19:45 1022 30.18 851 25.13 18 64.4 40 4.4 39.9
19:50 1022 30.18 851 25.13 17.9 64.2 41 4.5 40.1
19:55 1022 30.18 851 25.13 17.8 64 42 4.8 40.6
20:00 1022 30.18 851 25.13 17.6 63.7 44 5.3 41.6
20:05 1022 30.18 851 25.13 17.5 63.4 40 3.9 39
20:10 1022 30.18 851 25.13 17.4 63.3 41 4 39.2
20:15 1022 30.18 851 25.13 17.2 62.9 43 4.6 40.3
20:20 1022 30.18 851 25.13 16.9 62.4 49 6.4 43.4
20:25 1022 30.18 851 25.13 16.3 61.3 53 6.7 44.1
20:30 1022 30.18 851 25.13 15.7 60.2 56 7 44.7
20:35 1022 30.18 851 25.13 15.2 59.4 57 6.9 44.3
20:40 1022 30.18 851 25.13 14.9 58.8 58 6.9 44.4
20:45 1022 30.18 851 25.13 14.6 58.3 61 7.2 44.9
20:50 1022 30.18 851 25.13 14.2 57.6 60 6.6 43.9
20:55 1022 30.18 851 25.13 13.9 57 61 6.7 44
21:00 1022 30.18 851 25.13 13.7 56.7 62 6.7 44.1
21:05 1022 30.18 851 25.13 13.5 56.3 63 6.6 43.9
21:10 1022 30.18 851 25.13 13.4 56.1 62 6.4 43.5
21:15 1022 30.18 851 25.13 13.5 56.2 62 6.3 43.4
21:20 1022 30.18 851 25.13 13.4 56.2 62 6.3 43.4
21:25 1022 30.18 851 25.13 13.4 56.1 62 6.3 43.4
21:30 1022 30.18 851 25.13 13.2 55.8 63 6.3 43.3
21:35 1022 30.18 851 25.13 13.1 55.5 63 6.3 43.3
21:40 1022 30.18 851 25.13 12.8 55.1 64 6.2 43.2
21:45 1022 30.18 851 25.13 12.6 54.6 65 6.3 43.3
21:50 1022 30.18 851 25.13 12.4 54.4 63 5.7 42.3
21:55 1022 30.18 851 25.13 12.3 54.1 63 5.6 42.1
22:00 1022 30.18 851 25.13 12 53.6 64 5.5 42
22:05 1022 30.18 851 25.13 11.9 53.4 65 5.5 41.9
22:10 1022 30.18 851 25.13 11.8 53.3 64 5.3 41.6
22:15 1022 30.18 851 25.13 11.7 53.1 64 5.2 41.4
22:20 1022 30.18 851 25.13 11.7 53 65 5.3 41.5
22:25 1022 30.18 851 25.13 11.8 53.2 64 5.2 41.4
22:30 1022 30.18 851 25.13 11.9 53.3 63 5 41.1
22:35 1022 30.18 851 25.13 12.1 53.7 61 4.8 40.7
22:40 1022 30.18 851 25.13 12.3 54.1 60 4.9 40.8
22:45 1022 30.18 851 25.13 12.3 54.2 61 5.1 41.1
22:50 1022 30.18 851 25.13 12.1 53.7 62 5.1 41.3
22:55 1022 30.18 851 25.13 11.9 53.4 64 5.2 41.4
23:00 1022 30.18 851 25.13 11.6 52.8 64 5.1 41.2
23:05 1022 30.18 851 25.13 11.3 52.4 65 5 41
23:10 1022 30.18 851 25.13 11.3 52.3 64 4.8 40.7
23:15 1022 30.18 851 25.13 11.6 52.8 63 4.7 40.5
23:20 1021 30.15 851 25.13 11.6 52.8 64 5.1 41.2
23:25 1021 30.15 851 25.13 11.5 52.6 64 4.9 40.8
23:30 1021 30.15 851 25.13 11.4 52.4 64 4.9 40.8
23:35 1021 30.15 850 25.1 11.2 52.2 65 4.9 40.9
23:40 1021 30.15 850 25.1 11.1 52 65 4.8 40.6
23:45 1021 30.15 850 25.1 11 51.8 66 4.9 40.8
23:50 1021 30.15 850 25.1 10.8 51.5 66 4.7 40.5
23:55 1021 30.15 850 25.1 10.8 51.4 65 4.5 40.1
24:00 1021 30.15 850 25.1 10.9 51.7 64 4.4 39.9